Junction City, KS

10:28 AM CDT on October 30, 2014 (GMT -0500)
Indian Ridge | Change Station
CLOSE
Current Station
Personal Weather Station
Location: Junction City, KS
Elevation: 1227 ft
Nearby Weather Stations
Active Advisory: Freeze Warning

Elev 1227 ft 39.02 °N, 96.87 °W | Updated 10 minutes ago

Clear
Clear
58.3 °F
Feels Like 58.3 °F
N
8.3
Wind Variable Wind from NNE

Today
High -- | Low -- °F
--% Chance of Precip.
Yesterday
High -- | Low -- °F
Precip. -- in
7:52 AM 6:28 PM
Waxing Crescent, 45% visible
Pressure 30.09 in
Visibility 9.0 miles
Clouds Clear
Dew Point 39 °F
Humidity 48%
Rainfall 0.00 in
Snow Depth Not available.
UV 2 out of 12
Pollen 2.40 out of 12
Air Quality Not available.
Flu Activity Not available.
METAR KFRI 301458Z AUTO 01012G16KT 360V170 9SM CLR 14/02 A3010 RMK AO2 SLP190 T01430023 52028

More Conditions Fewer Conditions

Pressure 30.09 in
Visibility 9.0 miles
Clouds Clear
Dew Point 39 °F
Humidity 48%
Rainfall 0.00 in
Snow Depth Not available.
UV 2 out of 12
Pollen 2.40 out of 12
Air Quality Not available.
Flu Activity Not available.
METAR KFRI 301458Z AUTO 01012G16KT 360V170 9SM CLR 14/02 A3010 RMK AO2 SLP190 T01430023 52028

More Conditions Fewer Conditions

10-Day Weather Forecast

Almanac

Astronomy

Oct. 30, 2014 Rise Set
Actual Time
Civil Twilight
Nautical Twilight
Astronomical Twilight
Moon
Length of Visible Light
Length of Day
Tomorrow will be .
, % of the Moon is Illuminated

Today's Extremes

State Highs State Lows

Community

WunderPhotos

Upload Photos

1,766,386 photos uploaded!

WunderBlogs® & News

Nearby

Air Quality

  Air Quality AQ Index Pollutant
Not available.

Snow Depth

Station Depth Elevation

Earthquake Activity

City Distance Mag. Time & Date
Minimum magnitude displayed is 2.5.

Coastal Water Temperatures

Place Temperature

Nearby Weather Stations